National Weather Service Raw Text Product

Displaying AFOS PIL: TAFFOD Received: 2017-11-15 05:54 UTC


848 
FTUS43 KDMX 150554 CCA
TAFFOD
TAF COR
KFOD 150554Z 1506/1606 21010KT P6SM SCT006 OVC016
     FM150800 29011KT P6SM BKN011
     FM151100 31013KT P6SM SCT100
     FM151500 32012G17KT P6SM SCT030
     FM160100 34006KT P6SM SCT030=